createdAt,value
2022-12-25T00:01:01.314Z,7.33
2022-12-25T00:06:20.170Z,7.32
2022-12-25T00:16:59.273Z,7.29
2022-12-25T00:27:37.833Z,7.28
2022-12-25T00:38:15.929Z,7.23
2022-12-25T00:43:34.874Z,7.21
2022-12-25T00:54:13.413Z,7.19
2022-12-25T00:59:33.125Z,7.19
2022-12-25T01:10:12.070Z,7.16
2022-12-25T01:20:51.177Z,7.14
2022-12-25T01:26:09.953Z,7.12
2022-12-25T01:36:48.158Z,7.12
2022-12-25T01:42:07.555Z,7.09
2022-12-25T01:52:45.990Z,7.08
2022-12-25T02:08:45.252Z,7.07
2022-12-25T02:15:19.439Z,7.05
2022-12-25T02:19:22.354Z,7.05
2022-12-25T02:24:42.016Z,7.05
2022-12-25T02:35:20.502Z,7.04
2022-12-25T02:40:39.318Z,7.02
2022-12-25T02:51:17.728Z,7.01
2022-12-25T03:01:57.594Z,6.97
2022-12-25T03:07:16.873Z,6.95
2022-12-25T03:17:54.765Z,6.97
2022-12-25T03:33:53.225Z,6.92
2022-12-25T03:49:49.771Z,6.91
2022-12-25T04:00:28.493Z,6.88
2022-12-25T04:05:47.319Z,6.87
2022-12-25T04:11:06.959Z,6.85
2022-12-25T04:16:25.988Z,6.84
2022-12-25T04:32:22.726Z,6.74
2022-12-25T04:43:01.731Z,6.7
2022-12-25T04:48:20.623Z,6.67
2022-12-25T04:58:59.412Z,6.61
2022-12-25T05:04:19.003Z,6.57
2022-12-25T05:14:58.313Z,6.53
2022-12-25T05:25:36.964Z,6.47
2022-12-25T05:30:56.246Z,6.44
2022-12-25T05:41:34.996Z,6.43
2022-12-25T05:46:54.245Z,6.41
2022-12-25T05:57:33.234Z,6.41
2022-12-25T06:13:29.843Z,6.4
2022-12-25T06:24:08.985Z,6.4
2022-12-25T06:29:27.793Z,6.37
2022-12-25T06:40:06.898Z,6.33
2022-12-25T06:50:44.822Z,6.32
2022-12-25T06:56:04.465Z,6.37
2022-12-25T07:06:43.389Z,6.33
2022-12-25T07:17:22.322Z,6.32
2022-12-25T07:33:20.291Z,6.29
2022-12-25T07:43:59.370Z,6.29
2022-12-25T07:49:18.581Z,6.27
2022-12-25T07:59:56.867Z,6.29
2022-12-25T08:15:54.370Z,6.32
2022-12-25T08:26:32.443Z,6.34
2022-12-25T08:31:51.321Z,6.36
2022-12-25T08:42:30.499Z,6.41
2022-12-25T08:47:50.084Z,6.48
2022-12-25T08:53:09.351Z,6.58
2022-12-25T08:58:28.369Z,6.61
2022-12-25T09:09:06.772Z,6.68
2022-12-25T09:14:27.141Z,6.71
2022-12-25T09:25:05.472Z,6.8
2022-12-25T09:30:24.827Z,6.83
2022-12-25T09:41:02.242Z,6.97
2022-12-25T09:56:59.488Z,7.35
2022-12-25T10:07:37.372Z,7.66
2022-12-25T10:12:56.389Z,7.72
2022-12-25T10:23:35.298Z,7.91
2022-12-25T10:28:54.187Z,7.97
2022-12-25T10:39:32.130Z,8.1
2022-12-25T10:50:10.237Z,8.21
2022-12-25T10:55:30.020Z,8.28
2022-12-25T11:06:08.180Z,8.42
2022-12-25T11:11:27.421Z,8.42
2022-12-25T11:16:46.316Z,8.45
2022-12-25T11:22:14.600Z,8.52
2022-12-25T11:32:44.200Z,8.62
2022-12-25T11:38:04.109Z,8.67
2022-12-25T11:48:42.043Z,8.72
2022-12-25T11:54:01.226Z,8.78
2022-12-25T12:04:42.875Z,8.85
2022-12-25T12:15:18.424Z,8.93
2022-12-25T12:20:38.142Z,8.99
2022-12-25T12:32:31.950Z,9.08
2022-12-25T12:36:36.792Z,9.06
2022-12-25T12:47:13.595Z,9.1
2022-12-25T12:57:52.016Z,9.14
2022-12-25T13:03:11.172Z,9.2
2022-12-25T13:19:08.743Z,9.33
2022-12-25T13:29:48.157Z,9.39
2022-12-25T13:45:46.225Z,9.56
2022-12-25T14:07:03.342Z,9.6
2022-12-25T14:12:22.453Z,9.6
2022-12-25T14:23:00.352Z,9.56
2022-12-25T14:38:57.543Z,9.53
2022-12-25T14:49:35.770Z,9.49
2022-12-25T14:54:56.067Z,9.46
2022-12-25T15:05:35.100Z,9.39
2022-12-25T15:21:31.893Z,9.3
2022-12-25T15:33:14.081Z,9.29
2022-12-25T15:38:04.044Z,9.2
2022-12-25T15:43:40.212Z,9.18
2022-12-25T15:54:01.660Z,9.08
2022-12-25T16:04:40.253Z,9.02
2022-12-25T16:10:00.032Z,8.96
2022-12-25T16:20:37.457Z,8.92
2022-12-25T16:25:56.723Z,8.88
2022-12-25T16:36:35.608Z,8.81
2022-12-25T16:52:33.053Z,8.72
2022-12-25T17:03:11.691Z,8.67
2022-12-25T17:08:31.307Z,8.64
2022-12-25T17:19:09.843Z,8.58
2022-12-25T17:24:29.020Z,8.52
2022-12-25T17:35:08.181Z,8.47
2022-12-25T17:51:06.161Z,8.38
2022-12-25T18:01:43.258Z,8.35
2022-12-25T18:07:02.330Z,8.34
2022-12-25T18:17:40.570Z,8.27
2022-12-25T18:33:37.927Z,8.18
2022-12-25T18:44:16.646Z,8.1
2022-12-25T18:49:35.586Z,8.08
2022-12-25T19:00:14.471Z,8.01
2022-12-25T19:16:12.450Z,7.91
2022-12-25T19:26:51.149Z,7.87
2022-12-25T19:32:10.272Z,7.87
2022-12-25T19:42:48.624Z,7.82
2022-12-25T19:48:07.656Z,7.77
2022-12-25T19:53:27.020Z,7.77
2022-12-25T19:58:45.957Z,7.74
2022-12-25T20:09:24.349Z,7.69
2022-12-25T20:14:43.576Z,7.66
2022-12-25T20:25:21.772Z,7.61
2022-12-25T20:30:40.596Z,7.56
2022-12-25T20:41:28.667Z,7.58
2022-12-25T20:52:03.124Z,7.52
2022-12-25T21:02:36.876Z,7.53
2022-12-25T21:07:56.330Z,7.51
2022-12-25T21:18:35.084Z,7.45
2022-12-25T21:29:13.241Z,7.45
2022-12-25T21:34:32.857Z,7.41
2022-12-25T21:45:11.233Z,7.38
2022-12-25T21:50:34.694Z,7.36
2022-12-25T21:55:49.777Z,7.35
2022-12-25T22:01:08.678Z,7.35
2022-12-25T22:06:28.084Z,7.33
2022-12-25T22:11:47.782Z,7.31
2022-12-25T22:17:06.651Z,7.29
2022-12-25T22:27:45.288Z,7.26
2022-12-25T22:33:05.263Z,7.25
2022-12-25T22:44:15.714Z,7.19
2022-12-25T22:49:02.885Z,7.21
2022-12-25T22:59:41.780Z,7.18
2022-12-25T23:15:39.374Z,7.15
2022-12-25T23:26:16.606Z,7.12
2022-12-25T23:36:55.545Z,7.12
2022-12-25T23:42:15.053Z,7.11
2022-12-25T23:58:13.665Z,7.11
